| |
Missouri Department of Transportation

Social Media Facebook Twitter Flickr Instagram YouTube RSS

Current AWOS Information

 
AWOS Home - General Info for all Airports
Current AWOS for all Airports - Current METAR for all Airports
Glossary - Disclaimer - Other Links


HANNIBAL--HANNIBAL REGIONAL--KHAE
 
Recent AWOS History
 
05/25/15     10:20 AM CDT      15:20 GMT
Air Temperature 72°F (22°C ) 1st Cloud Layer Broken at 1,700 feet
Dew Point 62°F (17°C) 2nd Cloud Layer  
Barometric Pressure 29.98 in Hg. 3rd Cloud Layer  
Wind Speed 12 mph (11 knots) Density Altitude  
Peak Wind Gusts 16 mph (14 knots) Variable Wind Directions  
Wind Direction Quadrant(220°) Variable Visibility  
Visibility 10 statute miles  

Thunderstorm and Precipitation Identification: 
Thunderstorm Remarks: 

Current METAR Record: METAR KHAE 251524Z AUTO 21010G14KT 10SM BKN017 22/17 A2998 RMK AO2

 

 

 

About Us
How Do I...
Contact Us
Missouri Department of Transportation
Central Office
105 W. Capitol Avenue
Jefferson City, MO 65102
1-888-ASK-MODOT (275-6636)
1-866-831-6277 (Motor Carrier Services)
Driver's License Offices
horz_bar
| | |
Missouri State Government
© 2013 Missouri Department of Transportation. All Rights Reserved.   Privacy Policy.
 
 
 
 
RSS FeedYoutubeBlogFlickrTwitter Facebook